Observations

83.1 °F / 28.4 °C
ENE at 12 MPH
84%
78.1°F / 25.6 °C
29.83" (1010 mb)
10 mile(s)
partly cloudy
2020.08.04 1040 UTC

Observations

Surface


Raw METARs

2020/08/04 10:40
PKWA 041040Z AUTO 06010KT 10SM SCT017 SCT026 28/26 A2983 RMK AO2 T02840256

Translated METAR

Kwajalein, Bucholz AAF, Kwajalein KMR ATOL Airport, Marshall Islands (PKWA) 08-43N 167-44E 2M
Aug 04, 2020 - 06:40 AM EDT / 2020.08.04 1040 UTC
Wind: from the ENE (060 degrees) at 12 MPH (10 KT):0
Visibility: 10 mile(s):0
Sky conditions: partly cloudy
Temperature: 83.1 F (28.4 C)
Dew Point: 78.1 F (25.6 C)
Relative Humidity: 84%
Pressure (altimeter): 29.83 in. Hg (1010 hPa)
ob: PKWA 041040Z AUTO 06010KT 10SM SCT017 SCT026 28/26 A2983 RMK AO2 T02840256
cycle: 10



Upper Air


Latest Skew-T

Skew T Diagram

Latest Data File